sensor_id;sensor_type;location;lat;lon;timestamp;pressure;altitude;pressure_sealevel;temperature
61977;BMP280;45905;50.570;10.428;2023-03-31T00:01:07;97129.59;;;9.98
61977;BMP280;45905;50.570;10.428;2023-03-31T00:03:34;97115.38;;;9.97
61977;BMP280;45905;50.570;10.428;2023-03-31T00:06:05;97122.75;;;9.98
61977;BMP280;45905;50.570;10.428;2023-03-31T00:08:33;97120.69;;;10.02
61977;BMP280;45905;50.570;10.428;2023-03-31T00:11:05;97111.81;;;10.06
61977;BMP280;45905;50.570;10.428;2023-03-31T00:13:34;97116.69;;;10.07
61977;BMP280;45905;50.570;10.428;2023-03-31T00:16:08;97116.19;;;10.11
61977;BMP280;45905;50.570;10.428;2023-03-31T00:18:36;97107.47;;;10.14
61977;BMP280;45905;50.570;10.428;2023-03-31T00:21:13;97108.06;;;10.16
61977;BMP280;45905;50.570;10.428;2023-03-31T00:23:53;97092.72;;;10.17
61977;BMP280;45905;50.570;10.428;2023-03-31T00:26:21;97094.91;;;10.20
61977;BMP280;45905;50.570;10.428;2023-03-31T00:28:49;97091.44;;;10.21
61977;BMP280;45905;50.570;10.428;2023-03-31T00:31:17;97087.16;;;10.22
61977;BMP280;45905;50.570;10.428;2023-03-31T00:33:45;97090.47;;;10.22
61977;BMP280;45905;50.570;10.428;2023-03-31T00:36:13;97088.72;;;10.23
61977;BMP280;45905;50.570;10.428;2023-03-31T00:38:43;97075.88;;;10.24
61977;BMP280;45905;50.570;10.428;2023-03-31T00:41:12;97082.53;;;10.25
61977;BMP280;45905;50.570;10.428;2023-03-31T00:43:40;97073.19;;;10.26
61977;BMP280;45905;50.570;10.428;2023-03-31T00:46:24;97074.13;;;10.25
61977;BMP280;45905;50.570;10.428;2023-03-31T00:48:57;97065.59;;;10.26
61977;BMP280;45905;50.570;10.428;2023-03-31T00:51:31;97075.88;;;10.24
61977;BMP280;45905;50.570;10.428;2023-03-31T00:54:04;97059.94;;;10.24
61977;BMP280;45905;50.570;10.428;2023-03-31T00:56:36;97066.75;;;10.23
61977;BMP280;45905;50.570;10.428;2023-03-31T00:59:10;97046.84;;;10.20
61977;BMP280;45905;50.570;10.428;2023-03-31T01:01:41;97042.56;;;10.21
61977;BMP280;45905;50.570;10.428;2023-03-31T01:04:12;97034.19;;;10.20
61977;BMP280;45905;50.570;10.428;2023-03-31T01:07:08;97028.34;;;10.20
61977;BMP280;45905;50.570;10.428;2023-03-31T01:09:38;97035.75;;;10.21
61977;BMP280;45905;50.570;10.428;2023-03-31T01:12:09;97032.44;;;10.21
61977;BMP280;45905;50.570;10.428;2023-03-31T01:14:36;97033.06;;;10.23
61977;BMP280;45905;50.570;10.428;2023-03-31T01:17:05;97030.69;;;10.21
61977;BMP280;45905;50.570;10.428;2023-03-31T01:43:52;96997.63;;;10.23
61977;BMP280;45905;50.570;10.428;2023-03-31T01:46:34;96989.09;;;10.24
61977;BMP280;45905;50.570;10.428;2023-03-31T01:49:24;96994.31;;;10.22
61977;BMP280;45905;50.570;10.428;2023-03-31T01:52:21;96985.75;;;10.23
61977;BMP280;45905;50.570;10.428;2023-03-31T01:58:05;96968.38;;;10.20
61977;BMP280;45905;50.570;10.428;2023-03-31T02:00:41;96954.16;;;10.19
61977;BMP280;45905;50.570;10.428;2023-03-31T02:03:17;96957.47;;;10.20
61977;BMP280;45905;50.570;10.428;2023-03-31T02:05:58;96954.16;;;10.19
61977;BMP280;45905;50.570;10.428;2023-03-31T02:08:39;96951.63;;;10.19
61977;BMP280;45905;50.570;10.428;2023-03-31T02:11:09;96957.47;;;10.20
61977;BMP280;45905;50.570;10.428;2023-03-31T02:13:40;96948.13;;;10.20
61977;BMP280;45905;50.570;10.428;2023-03-31T02:16:19;96938.34;;;10.17
61977;BMP280;45905;50.570;10.428;2023-03-31T02:18:55;96939.16;;;10.18
61977;BMP280;45905;50.570;10.428;2023-03-31T02:21:32;96920.66;;;10.17
61977;BMP280;45905;50.570;10.428;2023-03-31T02:24:11;96908.94;;;10.16
61977;BMP280;45905;50.570;10.428;2023-03-31T02:26:56;96909.75;;;10.17
61977;BMP280;45905;50.570;10.428;2023-03-31T02:29:25;96914.00;;;10.16
61977;BMP280;45905;50.570;10.428;2023-03-31T02:34:26;96920.81;;;10.16
61977;BMP280;45905;50.570;10.428;2023-03-31T02:36:54;96923.56;;;10.14
61977;BMP280;45905;50.570;10.428;2023-03-31T02:39:29;96912.63;;;10.14
61977;BMP280;45905;50.570;10.428;2023-03-31T02:41:57;96910.28;;;10.12
61977;BMP280;45905;50.570;10.428;2023-03-31T02:44:26;96914.38;;;10.13
61977;BMP280;45905;50.570;10.428;2023-03-31T02:46:53;96910.28;;;10.12
61977;BMP280;45905;50.570;10.428;2023-03-31T02:49:21;96901.91;;;10.12
61977;BMP280;45905;50.570;10.428;2023-03-31T03:01:40;96887.84;;;10.10
61977;BMP280;45905;50.570;10.428;2023-03-31T03:04:13;96886.28;;;10.09
61977;BMP280;45905;50.570;10.428;2023-03-31T03:07:02;96887.22;;;10.08
61977;BMP280;45905;50.570;10.428;2023-03-31T03:10:03;96884.72;;;10.08
61977;BMP280;45905;50.570;10.428;2023-03-31T03:16:03;96873.22;;;10.05
61977;BMP280;45905;50.570;10.428;2023-03-31T03:18:32;96867.94;;;10.07
61977;BMP280;45905;50.570;10.428;2023-03-31T03:20:59;96859.59;;;10.06
61977;BMP280;45905;50.570;10.428;2023-03-31T03:23:26;96864.47;;;10.08
61977;BMP280;45905;50.570;10.428;2023-03-31T03:25:54;96856.88;;;10.08
61977;BMP280;45905;50.570;10.428;2023-03-31T03:28:21;96849.28;;;10.08
61977;BMP280;45905;50.570;10.428;2023-03-31T03:30:48;96847.53;;;10.08
61977;BMP280;45905;50.570;10.428;2023-03-31T03:33:16;96848.31;;;10.09
61977;BMP280;45905;50.570;10.428;2023-03-31T03:35:43;96847.53;;;10.08
61977;BMP280;45905;50.570;10.428;2023-03-31T03:38:10;96838.59;;;10.06
61977;BMP280;45905;50.570;10.428;2023-03-31T03:40:37;96830.38;;;10.04
61977;BMP280;45905;50.570;10.428;2023-03-31T03:43:04;96816.78;;;10.05
61977;BMP280;45905;50.570;10.428;2023-03-31T03:45:31;96803.16;;;10.06
61977;BMP280;45905;50.570;10.428;2023-03-31T03:47:58;96804.72;;;10.07
61977;BMP280;45905;50.570;10.428;2023-03-31T03:50:26;96798.69;;;10.08
61977;BMP280;45905;50.570;10.428;2023-03-31T03:52:53;96786.03;;;10.08
61977;BMP280;45905;50.570;10.428;2023-03-31T03:55:20;96776.13;;;10.06
61977;BMP280;45905;50.570;10.428;2023-03-31T03:57:47;96780.41;;;10.06
61977;BMP280;45905;50.570;10.428;2023-03-31T04:00:14;96785.47;;;10.06
61977;BMP280;45905;50.570;10.428;2023-03-31T04:02:42;96766.19;;;10.05
61977;BMP280;45905;50.570;10.428;2023-03-31T04:05:10;96758.59;;;10.05
61977;BMP280;45905;50.570;10.428;2023-03-31T04:07:37;96756.06;;;10.05
61977;BMP280;45905;50.570;10.428;2023-03-31T04:10:05;96745.94;;;10.05
61977;BMP280;45905;50.570;10.428;2023-03-31T04:12:34;96747.84;;;10.03
61977;BMP280;45905;50.570;10.428;2023-03-31T04:15:01;96733.63;;;10.02
61977;BMP280;45905;50.570;10.428;2023-03-31T04:17:28;96730.50;;;10.00
61977;BMP280;45905;50.570;10.428;2023-03-31T04:20:07;96717.84;;;10.00
61977;BMP280;45905;50.570;10.428;2023-03-31T04:22:36;96708.69;;;9.99
61977;BMP280;45905;50.570;10.428;2023-03-31T04:25:10;96706.94;;;9.99
61977;BMP280;45905;50.570;10.428;2023-03-31T04:27:49;96695.47;;;9.97
61977;BMP280;45905;50.570;10.428;2023-03-31T04:30:23;96689.00;;;9.94
61977;BMP280;45905;50.570;10.428;2023-03-31T04:32:59;96674.97;;;9.92
61977;BMP280;45905;50.570;10.428;2023-03-31T04:35:29;96678.06;;;9.88
61977;BMP280;45905;50.570;10.428;2023-03-31T04:38:08;96667.31;;;9.86
61977;BMP280;45905;50.570;10.428;2023-03-31T04:40:35;96664.97;;;9.84
61977;BMP280;45905;50.570;10.428;2023-03-31T04:43:03;96655.81;;;9.83
61977;BMP280;45905;50.570;10.428;2023-03-31T04:45:30;96651.53;;;9.84
61977;BMP280;45905;50.570;10.428;2023-03-31T04:47:57;96647.63;;;9.81
61977;BMP280;45905;50.570;10.428;2023-03-31T04:50:24;96645.47;;;9.78
61977;BMP280;45905;50.570;10.428;2023-03-31T04:52:51;96655.91;;;9.75
61977;BMP280;45905;50.570;10.428;2023-03-31T04:55:19;96644.22;;;9.74
61977;BMP280;45905;50.570;10.428;2023-03-31T04:57:46;96662.09;;;9.73
61977;BMP280;45905;50.570;10.428;2023-03-31T05:00:14;96670.47;;;9.73
61977;BMP280;45905;50.570;10.428;2023-03-31T05:02:41;96682.53;;;9.72
61977;BMP280;45905;50.570;10.428;2023-03-31T05:05:09;96680.00;;;9.72
61977;BMP280;45905;50.570;10.428;2023-03-31T05:07:37;96686.19;;;9.69
61977;BMP280;45905;50.570;10.428;2023-03-31T05:10:06;96682.25;;;9.67
61977;BMP280;45905;50.570;10.428;2023-03-31T05:12:35;96673.47;;;9.63
61977;BMP280;45905;50.570;10.428;2023-03-31T05:15:06;96670.34;;;9.61
61977;BMP280;45905;50.570;10.428;2023-03-31T05:17:35;96665.28;;;9.61
61977;BMP280;45905;50.570;10.428;2023-03-31T05:20:03;96657.69;;;9.61
61977;BMP280;45905;50.570;10.428;2023-03-31T05:22:40;96657.53;;;9.62
61977;BMP280;45905;50.570;10.428;2023-03-31T05:25:10;96630.28;;;9.64
61977;BMP280;45905;50.570;10.428;2023-03-31T05:27:40;96609.50;;;9.62
61977;BMP280;45905;50.570;10.428;2023-03-31T05:30:08;96596.84;;;9.62
61977;BMP280;45905;50.570;10.428;2023-03-31T05:32:35;96590.63;;;9.65
61977;BMP280;45905;50.570;10.428;2023-03-31T05:35:02;96581.13;;;9.67
61977;BMP280;45905;50.570;10.428;2023-03-31T05:37:30;96572.59;;;9.68
61977;BMP280;45905;50.570;10.428;2023-03-31T05:39:57;96574.34;;;9.67
61977;BMP280;45905;50.570;10.428;2023-03-31T05:42:24;96566.56;;;9.69
61977;BMP280;45905;50.570;10.428;2023-03-31T05:44:52;96572.59;;;9.68
61977;BMP280;45905;50.570;10.428;2023-03-31T05:47:19;96581.56;;;9.70
61977;BMP280;45905;50.570;10.428;2023-03-31T05:49:46;96581.38;;;9.72
61977;BMP280;45905;50.570;10.428;2023-03-31T05:52:14;96577.88;;;9.72
61977;BMP280;45905;50.570;10.428;2023-03-31T05:54:41;96569.31;;;9.73
61977;BMP280;45905;50.570;10.428;2023-03-31T05:57:09;96585.09;;;9.75
61977;BMP280;45905;50.570;10.428;2023-03-31T05:59:36;96578.13;;;9.77
61977;BMP280;45905;50.570;10.428;2023-03-31T06:02:04;96582.09;;;9.80
61977;BMP280;45905;50.570;10.428;2023-03-31T06:04:31;96572.28;;;9.77
61977;BMP280;45905;50.570;10.428;2023-03-31T06:06:59;96566.97;;;9.72
61977;BMP280;45905;50.570;10.428;2023-03-31T06:09:26;96569.31;;;9.73
61977;BMP280;45905;50.570;10.428;2023-03-31T06:11:54;96570.09;;;9.74
61977;BMP280;45905;50.570;10.428;2023-03-31T06:14:22;96573.25;;;9.76
61977;BMP280;45905;50.570;10.428;2023-03-31T06:16:49;96571.69;;;9.75
61977;BMP280;45905;50.570;10.428;2023-03-31T06:19:16;96560.59;;;9.76
61977;BMP280;45905;50.570;10.428;2023-03-31T06:21:43;96552.84;;;9.77
61977;BMP280;45905;50.570;10.428;2023-03-31T06:24:11;96560.84;;;9.81
61977;BMP280;45905;50.570;10.428;2023-03-31T06:26:38;96549.22;;;9.80
61977;BMP280;45905;50.570;10.428;2023-03-31T06:29:05;96555.63;;;9.82
61977;BMP280;45905;50.570;10.428;2023-03-31T06:31:32;96546.91;;;9.85
61977;BMP280;45905;50.570;10.428;2023-03-31T06:33:59;96547.69;;;9.85
61977;BMP280;45905;50.570;10.428;2023-03-31T06:36:27;96558.41;;;9.87
61977;BMP280;45905;50.570;10.428;2023-03-31T06:38:54;96538.34;;;9.86
61977;BMP280;45905;50.570;10.428;2023-03-31T06:41:21;96533.72;;;9.89
61977;BMP280;45905;50.570;10.428;2023-03-31T06:43:48;96536.44;;;9.88
61977;BMP280;45905;50.570;10.428;2023-03-31T06:46:16;96544.59;;;9.90
61977;BMP280;45905;50.570;10.428;2023-03-31T06:48:43;96535.25;;;9.90
61977;BMP280;45905;50.570;10.428;2023-03-31T06:51:11;96548.50;;;9.92
61977;BMP280;45905;50.570;10.428;2023-03-31T06:53:39;96546.59;;;9.94
61977;BMP280;45905;50.570;10.428;2023-03-31T06:56:06;96538.81;;;9.95
61977;BMP280;45905;50.570;10.428;2023-03-31T06:58:34;96540.56;;;9.95
61977;BMP280;45905;50.570;10.428;2023-03-31T07:01:04;96541.53;;;9.94
61977;BMP280;45905;50.570;10.428;2023-03-31T07:03:32;96545.03;;;9.93
61977;BMP280;45905;50.570;10.428;2023-03-31T07:06:00;96534.13;;;9.92
61977;BMP280;45905;50.570;10.428;2023-03-31T07:08:27;96536.66;;;9.92
61977;BMP280;45905;50.570;10.428;2023-03-31T07:10:58;96529.50;;;9.96
61977;BMP280;45905;50.570;10.428;2023-03-31T07:13:26;96526.56;;;9.99
61977;BMP280;45905;50.570;10.428;2023-03-31T07:15:54;96520.56;;;10.00
61977;BMP280;45905;50.570;10.428;2023-03-31T07:18:23;96526.22;;;10.02
61977;BMP280;45905;50.570;10.428;2023-03-31T07:21:01;96517.66;;;10.03
61977;BMP280;45905;50.570;10.428;2023-03-31T07:23:34;96518.28;;;10.05
61977;BMP280;45905;50.570;10.428;2023-03-31T07:26:01;96513.22;;;10.05
61977;BMP280;45905;50.570;10.428;2023-03-31T07:28:30;96501.53;;;10.04
61977;BMP280;45905;50.570;10.428;2023-03-31T07:30:58;96484.44;;;10.06
61977;BMP280;45905;50.570;10.428;2023-03-31T07:33:25;96475.09;;;10.06
61977;BMP280;45905;50.570;10.428;2023-03-31T07:35:52;96479.72;;;10.03
61977;BMP280;45905;50.570;10.428;2023-03-31T07:38:36;96476.22;;;10.04
61977;BMP280;45905;50.570;10.428;2023-03-31T07:41:03;96468.66;;;10.04
61977;BMP280;45905;50.570;10.428;2023-03-31T07:43:35;96459.72;;;10.08
61977;BMP280;45905;50.570;10.428;2023-03-31T07:46:02;96453.06;;;10.07
61977;BMP280;45905;50.570;10.428;2023-03-31T07:48:32;96453.50;;;10.10
61977;BMP280;45905;50.570;10.428;2023-03-31T07:50:59;96450.56;;;10.07
61977;BMP280;45905;50.570;10.428;2023-03-31T07:53:31;96451.94;;;10.09
61977;BMP280;45905;50.570;10.428;2023-03-31T07:55:58;96447.47;;;10.11
61977;BMP280;45905;50.570;10.428;2023-03-31T07:58:26;96442.41;;;10.11
61977;BMP280;45905;50.570;10.428;2023-03-31T08:00:54;96440.31;;;10.14
61977;BMP280;45905;50.570;10.428;2023-03-31T08:03:22;96427.66;;;10.14
61977;BMP280;45905;50.570;10.428;2023-03-31T08:05:53;96424.13;;;10.15
61977;BMP280;45905;50.570;10.428;2023-03-31T08:08:20;96413.25;;;10.15
61977;BMP280;45905;50.570;10.428;2023-03-31T08:10:48;96414.41;;;10.12
61977;BMP280;45905;50.570;10.428;2023-03-31T08:13:15;96409.34;;;10.12
61977;BMP280;45905;50.570;10.428;2023-03-31T08:15:42;96389.13;;;10.12
61977;BMP280;45905;50.570;10.428;2023-03-31T08:18:10;96392.25;;;10.14
61977;BMP280;45905;50.570;10.428;2023-03-31T08:20:37;96380.16;;;10.10
61977;BMP280;45905;50.570;10.428;2023-03-31T08:23:05;96379.38;;;10.16
61977;BMP280;45905;50.570;10.428;2023-03-31T08:25:34;96355.66;;;10.17
61977;BMP280;45905;50.570;10.428;2023-03-31T08:28:02;96348.06;;;10.17
61977;BMP280;45905;50.570;10.428;2023-03-31T08:30:29;96342.22;;;10.16
61977;BMP280;45905;50.570;10.428;2023-03-31T08:32:56;96330.34;;;10.17
61977;BMP280;45905;50.570;10.428;2023-03-31T08:35:23;96328.00;;;10.15
61977;BMP280;45905;50.570;10.428;2023-03-31T08:37:50;96332.88;;;10.17
61977;BMP280;45905;50.570;10.428;2023-03-31T08:40:29;96331.13;;;10.17
61977;BMP280;45905;50.570;10.428;2023-03-31T08:43:07;96325.69;;;10.14
61977;BMP280;45905;50.570;10.428;2023-03-31T08:45:41;96318.28;;;10.12
61977;BMP280;45905;50.570;10.428;2023-03-31T08:48:32;96313.22;;;10.12
61977;BMP280;45905;50.570;10.428;2023-03-31T08:54:20;96301.53;;;10.11
61977;BMP280;45905;50.570;10.428;2023-03-31T08:56:50;96295.69;;;10.11
61977;BMP280;45905;50.570;10.428;2023-03-31T08:59:33;96292.56;;;10.09
61977;BMP280;45905;50.570;10.428;2023-03-31T09:02:28;96286.56;;;10.10
61977;BMP280;45905;50.570;10.428;2023-03-31T09:11:17;96260.47;;;10.10
61977;BMP280;45905;50.570;10.428;2023-03-31T09:14:32;96269.63;;;10.10
61977;BMP280;45905;50.570;10.428;2023-03-31T09:17:40;96287.69;;;10.08
61977;BMP280;45905;50.570;10.428;2023-03-31T09:20:17;96269.63;;;10.04
61977;BMP280;45905;50.570;10.428;2023-03-31T09:22:56;96256.38;;;10.02
61977;BMP280;45905;50.570;10.428;2023-03-31T09:25:32;96250.16;;;10.05
61977;BMP280;45905;50.570;10.428;2023-03-31T09:28:03;96251.31;;;10.09
61977;BMP280;45905;50.570;10.428;2023-03-31T09:30:36;96256.78;;;10.12
61977;BMP280;45905;50.570;10.428;2023-03-31T09:33:13;96256.41;;;10.15
61977;BMP280;45905;50.570;10.428;2023-03-31T09:35:43;96256.03;;;10.18
61977;BMP280;45905;50.570;10.428;2023-03-31T09:38:14;96254.44;;;10.17
61977;BMP280;45905;50.570;10.428;2023-03-31T09:40:42;96254.09;;;10.20
61977;BMP280;45905;50.570;10.428;2023-03-31T09:43:30;96255.47;;;10.22
61977;BMP280;45905;50.570;10.428;2023-03-31T09:46:01;96244.75;;;10.14
61977;BMP280;45905;50.570;10.428;2023-03-31T09:48:37;96264.19;;;10.13
61977;BMP280;45905;50.570;10.428;2023-03-31T09:51:13;96245.47;;;10.08
61977;BMP280;45905;50.570;10.428;2023-03-31T09:53:50;96244.31;;;10.10
61977;BMP280;45905;50.570;10.428;2023-03-31T09:56:47;96250.97;;;10.18
61977;BMP280;45905;50.570;10.428;2023-03-31T09:59:29;96261.47;;;10.21
61977;BMP280;45905;50.570;10.428;2023-03-31T10:01:59;96238.72;;;10.28
61977;BMP280;45905;50.570;10.428;2023-03-31T10:04:33;96242.81;;;10.35
61977;BMP280;45905;50.570;10.428;2023-03-31T10:07:04;96237.94;;;10.33
61977;BMP280;45905;50.570;10.428;2023-03-31T10:09:33;96258.78;;;10.29
61977;BMP280;45905;50.570;10.428;2023-03-31T10:12:07;96262.28;;;10.34
61977;BMP280;45905;50.570;10.428;2023-03-31T10:14:44;96261.91;;;10.44
61977;BMP280;45905;50.570;10.428;2023-03-31T10:17:18;96238.56;;;10.48
61977;BMP280;45905;50.570;10.428;2023-03-31T10:19:53;96236.41;;;10.51
61977;BMP280;45905;50.570;10.428;2023-03-31T10:24:51;96239.53;;;10.60
61977;BMP280;45905;50.570;10.428;2023-03-31T10:27:30;96238.59;;;10.67
61977;BMP280;45905;50.570;10.428;2023-03-31T10:30:01;96235.25;;;10.73
61977;BMP280;45905;50.570;10.428;2023-03-31T10:32:48;96237.41;;;10.82
61977;BMP280;45905;50.570;10.428;2023-03-31T10:35:30;96240.53;;;10.90
61977;BMP280;45905;50.570;10.428;2023-03-31T10:38:05;96224.94;;;10.93
61977;BMP280;45905;50.570;10.428;2023-03-31T10:40:34;96225.72;;;11.00
61977;BMP280;45905;50.570;10.428;2023-03-31T10:43:17;96227.81;;;11.03
61977;BMP280;45905;50.570;10.428;2023-03-31T10:45:59;96224.53;;;11.09
61977;BMP280;45905;50.570;10.428;2023-03-31T10:48:30;96229.19;;;11.12
61977;BMP280;45905;50.570;10.428;2023-03-31T10:51:20;96215.16;;;11.16
61977;BMP280;45905;50.570;10.428;2023-03-31T10:53:54;96216.31;;;11.20
61977;BMP280;45905;50.570;10.428;2023-03-31T10:56:45;96208.91;;;11.24
61977;BMP280;45905;50.570;10.428;2023-03-31T10:59:50;96195.44;;;11.37
61977;BMP280;45905;50.570;10.428;2023-03-31T11:06:08;96197.50;;;11.59
61977;BMP280;45905;50.570;10.428;2023-03-31T11:09:10;96193.56;;;11.69
61977;BMP280;45905;50.570;10.428;2023-03-31T11:11:51;96199.75;;;11.79
61977;BMP280;45905;50.570;10.428;2023-03-31T11:14:47;96197.38;;;11.84
61977;BMP280;45905;50.570;10.428;2023-03-31T11:20:37;96182.50;;;11.94
61977;BMP280;45905;50.570;10.428;2023-03-31T11:23:40;96186.75;;;12.00
61977;BMP280;45905;50.570;10.428;2023-03-31T11:26:20;96169.75;;;12.06
61977;BMP280;45905;50.570;10.428;2023-03-31T11:29:34;96187.63;;;12.18
61977;BMP280;45905;50.570;10.428;2023-03-31T11:32:36;96178.44;;;12.23
61977;BMP280;45905;50.570;10.428;2023-03-31T11:35:46;96181.56;;;12.25
61977;BMP280;45905;50.570;10.428;2023-03-31T11:38:58;96177.03;;;12.27
61977;BMP280;45905;50.570;10.428;2023-03-31T11:41:51;96176.69;;;12.17
61977;BMP280;45905;50.570;10.428;2023-03-31T11:44:23;96174.94;;;12.18
61977;BMP280;45905;50.570;10.428;2023-03-31T11:47:00;96172.63;;;12.16
61977;BMP280;45905;50.570;10.428;2023-03-31T11:49:38;96166.94;;;12.20
61977;BMP280;45905;50.570;10.428;2023-03-31T11:52:33;96167.84;;;12.26
61977;BMP280;45905;50.570;10.428;2023-03-31T11:55:17;96156.31;;;12.30
61977;BMP280;45905;50.570;10.428;2023-03-31T11:58:21;96156.47;;;12.35
61977;BMP280;45905;50.570;10.428;2023-03-31T12:01:23;96153.94;;;12.35
61977;BMP280;45905;50.570;10.428;2023-03-31T12:06:34;96163.88;;;12.36
61977;BMP280;45905;50.570;10.428;2023-03-31T12:12:24;96182.88;;;11.97
61977;BMP280;45905;50.570;10.428;2023-03-31T12:15:40;96176.75;;;11.74
61977;BMP280;45905;50.570;10.428;2023-03-31T12:18:21;96161.19;;;11.64
61977;BMP280;45905;50.570;10.428;2023-03-31T12:21:02;96159.13;;;11.49
61977;BMP280;45905;50.570;10.428;2023-03-31T12:23:39;96164.22;;;11.43
61977;BMP280;45905;50.570;10.428;2023-03-31T12:26:33;96163.28;;;11.37
61977;BMP280;45905;50.570;10.428;2023-03-31T12:29:37;96172.25;;;11.27
61977;BMP280;45905;50.570;10.428;2023-03-31T12:32:17;96179.09;;;11.20
61977;BMP280;45905;50.570;10.428;2023-03-31T12:35:10;96184.41;;;11.00
61977;BMP280;45905;50.570;10.428;2023-03-31T12:50:22;96202.50;;;10.21
61977;BMP280;45905;50.570;10.428;2023-03-31T12:56:02;96207.91;;;9.99
61977;BMP280;45905;50.570;10.428;2023-03-31T13:06:02;96208.91;;;10.10
61977;BMP280;45905;50.570;10.428;2023-03-31T13:08:51;96222.16;;;10.12
61977;BMP280;45905;50.570;10.428;2023-03-31T13:11:33;96204.25;;;10.14
61977;BMP280;45905;50.570;10.428;2023-03-31T13:14:21;96214.38;;;10.20
61977;BMP280;45905;50.570;10.428;2023-03-31T13:16:51;96210.28;;;10.19
61977;BMP280;45905;50.570;10.428;2023-03-31T13:19:38;96205.84;;;10.21
61977;BMP280;45905;50.570;10.428;2023-03-31T13:25:54;96190.28;;;10.30
61977;BMP280;45905;50.570;10.428;2023-03-31T13:31:05;96187.53;;;10.45
61977;BMP280;45905;50.570;10.428;2023-03-31T13:33:55;96185.41;;;10.54
61977;BMP280;45905;50.570;10.428;2023-03-31T13:42:18;96168.84;;;10.84
61977;BMP280;45905;50.570;10.428;2023-03-31T13:47:47;96156.34;;;11.01
61977;BMP280;45905;50.570;10.428;2023-03-31T14:00:35;96141.63;;;11.22
61977;BMP280;45905;50.570;10.428;2023-03-31T14:03:28;96128.19;;;11.28
61977;BMP280;45905;50.570;10.428;2023-03-31T14:06:26;96128.19;;;11.34
61977;BMP280;45905;50.570;10.428;2023-03-31T14:09:25;96125.03;;;11.39
61977;BMP280;45905;50.570;10.428;2023-03-31T14:11:57;96138.09;;;11.42
61977;BMP280;45905;50.570;10.428;2023-03-31T14:14:25;96135.56;;;11.42
61977;BMP280;45905;50.570;10.428;2023-03-31T14:17:00;96130.88;;;11.39
61977;BMP280;45905;50.570;10.428;2023-03-31T14:25:12;96144.19;;;11.28
61977;BMP280;45905;50.570;10.428;2023-03-31T14:37:15;96129.06;;;10.97
61977;BMP280;45905;50.570;10.428;2023-03-31T14:39:51;96125.56;;;10.91
61977;BMP280;45905;50.570;10.428;2023-03-31T14:42:35;96117.78;;;10.86
61977;BMP280;45905;50.570;10.428;2023-03-31T14:45:15;96118.59;;;10.81
61977;BMP280;45905;50.570;10.428;2023-03-31T14:47:57;96111.16;;;10.86
61977;BMP280;45905;50.570;10.428;2023-03-31T14:50:34;96108.44;;;10.87
61977;BMP280;45905;50.570;10.428;2023-03-31T14:53:02;96111.53;;;10.89
61977;BMP280;45905;50.570;10.428;2023-03-31T14:55:33;96110.19;;;10.93
61977;BMP280;45905;50.570;10.428;2023-03-31T14:58:29;96114.63;;;10.97
61977;BMP280;45905;50.570;10.428;2023-03-31T15:00:58;96116.19;;;10.98
61977;BMP280;45905;50.570;10.428;2023-03-31T15:03:25;96108.78;;;10.97
61977;BMP280;45905;50.570;10.428;2023-03-31T15:05:59;96114.44;;;10.99
61977;BMP280;45905;50.570;10.428;2023-03-31T15:08:29;96122.00;;;11.05
61977;BMP280;45905;50.570;10.428;2023-03-31T15:11:02;96113.63;;;11.05
61977;BMP280;45905;50.570;10.428;2023-03-31T15:13:51;96111.31;;;11.09
61977;BMP280;45905;50.570;10.428;2023-03-31T15:16:44;96099.41;;;11.10
61977;BMP280;45905;50.570;10.428;2023-03-31T15:19:21;96096.88;;;11.10
61977;BMP280;45905;50.570;10.428;2023-03-31T15:22:13;96089.28;;;11.10
61977;BMP280;45905;50.570;10.428;2023-03-31T15:24:42;96091.97;;;11.15
61977;BMP280;45905;50.570;10.428;2023-03-31T15:27:35;96080.66;;;11.17
61977;BMP280;45905;50.570;10.428;2023-03-31T15:30:07;96080.63;;;11.24
61977;BMP280;45905;50.570;10.428;2023-03-31T15:32:39;96079.66;;;11.24
61977;BMP280;45905;50.570;10.428;2023-03-31T15:38:11;96078.66;;;11.32
61977;BMP280;45905;50.570;10.428;2023-03-31T15:40:42;96074.97;;;11.34
61977;BMP280;45905;50.570;10.428;2023-03-31T15:43:27;96063.84;;;11.35
61977;BMP280;45905;50.570;10.428;2023-03-31T15:46:00;96073.94;;;11.42
61977;BMP280;45905;50.570;10.428;2023-03-31T15:48:36;96074.34;;;11.45
61977;BMP280;45905;50.570;10.428;2023-03-31T15:53:50;96075.66;;;11.47
61977;BMP280;45905;50.570;10.428;2023-03-31T15:59:04;96065.72;;;11.52
61977;BMP280;45905;50.570;10.428;2023-03-31T16:01:42;96061.63;;;11.51
61977;BMP280;45905;50.570;10.428;2023-03-31T16:04:13;96055.75;;;11.51
61977;BMP280;45905;50.570;10.428;2023-03-31T16:06:51;96052.84;;;11.47
61977;BMP280;45905;50.570;10.428;2023-03-31T16:09:29;96054.78;;;11.52
61977;BMP280;45905;50.570;10.428;2023-03-31T16:12:24;96048.94;;;11.51
61977;BMP280;45905;50.570;10.428;2023-03-31T16:15:05;96052.84;;;11.54
61977;BMP280;45905;50.570;10.428;2023-03-31T16:17:53;96054.75;;;11.58
61977;BMP280;45905;50.570;10.428;2023-03-31T16:20:36;96060.59;;;11.59
61977;BMP280;45905;50.570;10.428;2023-03-31T16:23:23;96060.19;;;11.62
61977;BMP280;45905;50.570;10.428;2023-03-31T16:25:52;96069.91;;;11.64
61977;BMP280;45905;50.570;10.428;2023-03-31T16:28:24;96073.06;;;11.60
61977;BMP280;45905;50.570;10.428;2023-03-31T16:30:52;96081.44;;;11.61
61977;BMP280;45905;50.570;10.428;2023-03-31T16:33:22;96075.81;;;11.59
61977;BMP280;45905;50.570;10.428;2023-03-31T16:35:54;96076.38;;;11.61
61977;BMP280;45905;50.570;10.428;2023-03-31T16:38:27;96078.13;;;11.60
61977;BMP280;45905;50.570;10.428;2023-03-31T16:40:56;96072.28;;;11.60
61977;BMP280;45905;50.570;10.428;2023-03-31T16:43:29;96080.69;;;11.60
61977;BMP280;45905;50.570;10.428;2023-03-31T16:46:00;96091.00;;;11.59
61977;BMP280;45905;50.570;10.428;2023-03-31T16:48:30;96082.81;;;11.57
61977;BMP280;45905;50.570;10.428;2023-03-31T16:51:00;96085.22;;;11.52
61977;BMP280;45905;50.570;10.428;2023-03-31T16:53:31;96090.28;;;11.52
61977;BMP280;45905;50.570;10.428;2023-03-31T16:56:06;96092.81;;;11.52
61977;BMP280;45905;50.570;10.428;2023-03-31T16:58:35;96099.44;;;11.53
61977;BMP280;45905;50.570;10.428;2023-03-31T17:01:05;96092.03;;;11.51